sensor_id;sensor_type;location;lat;lon;timestamp;P1;durP1;ratioP1;P2;durP2;ratioP2
15356;SDS011;7778;48.792;9.260;2022-07-17T00:00:31;7.95;;;2.22;;
15356;SDS011;7778;48.792;9.260;2022-07-17T00:03:16;4.13;;;2.20;;
15356;SDS011;7778;48.792;9.260;2022-07-17T00:06:03;4.57;;;2.05;;
15356;SDS011;7778;48.792;9.260;2022-07-17T00:08:49;4.38;;;2.20;;
15356;SDS011;7778;48.792;9.260;2022-07-17T00:11:34;2.20;;;1.88;;
15356;SDS011;7778;48.792;9.260;2022-07-17T00:14:22;5.60;;;2.13;;
15356;SDS011;7778;48.792;9.260;2022-07-17T00:17:08;2.45;;;2.15;;
15356;SDS011;7778;48.792;9.260;2022-07-17T00:19:53;6.15;;;2.75;;
15356;SDS011;7778;48.792;9.260;2022-07-17T00:22:39;3.13;;;2.33;;
15356;SDS011;7778;48.792;9.260;2022-07-17T00:25:26;2.97;;;2.35;;
15356;SDS011;7778;48.792;9.260;2022-07-17T00:28:12;3.58;;;2.40;;
15356;SDS011;7778;48.792;9.260;2022-07-17T00:30:59;5.45;;;2.38;;
15356;SDS011;7778;48.792;9.260;2022-07-17T00:33:45;4.50;;;2.40;;
15356;SDS011;7778;48.792;9.260;2022-07-17T00:36:31;4.15;;;2.47;;
15356;SDS011;7778;48.792;9.260;2022-07-17T00:39:17;2.60;;;2.13;;
15356;SDS011;7778;48.792;9.260;2022-07-17T00:42:03;4.43;;;2.78;;
15356;SDS011;7778;48.792;9.260;2022-07-17T00:44:49;2.38;;;1.98;;
15356;SDS011;7778;48.792;9.260;2022-07-17T00:47:43;2.65;;;2.30;;
15356;SDS011;7778;48.792;9.260;2022-07-17T00:50:38;2.38;;;1.92;;
15356;SDS011;7778;48.792;9.260;2022-07-17T00:53:26;3.38;;;2.38;;
15356;SDS011;7778;48.792;9.260;2022-07-17T00:56:13;5.20;;;2.22;;
15356;SDS011;7778;48.792;9.260;2022-07-17T00:59:02;4.28;;;2.30;;
15356;SDS011;7778;48.792;9.260;2022-07-17T01:01:48;4.82;;;2.42;;
15356;SDS011;7778;48.792;9.260;2022-07-17T01:04:36;4.03;;;2.60;;
15356;SDS011;7778;48.792;9.260;2022-07-17T01:07:23;5.32;;;2.78;;
15356;SDS011;7778;48.792;9.260;2022-07-17T01:10:08;3.58;;;2.65;;
15356;SDS011;7778;48.792;9.260;2022-07-17T01:12:54;3.35;;;2.70;;
15356;SDS011;7778;48.792;9.260;2022-07-17T01:15:40;3.65;;;2.42;;
15356;SDS011;7778;48.792;9.260;2022-07-17T01:18:26;6.07;;;2.58;;
15356;SDS011;7778;48.792;9.260;2022-07-17T01:21:13;3.35;;;2.70;;
15356;SDS011;7778;48.792;9.260;2022-07-17T01:23:58;4.03;;;2.90;;
15356;SDS011;7778;48.792;9.260;2022-07-17T01:26:44;4.25;;;2.63;;
15356;SDS011;7778;48.792;9.260;2022-07-17T01:29:35;3.92;;;2.65;;
15356;SDS011;7778;48.792;9.260;2022-07-17T01:32:29;4.07;;;2.90;;
15356;SDS011;7778;48.792;9.260;2022-07-17T01:35:16;4.78;;;2.60;;
15356;SDS011;7778;48.792;9.260;2022-07-17T01:38:03;3.90;;;2.63;;
15356;SDS011;7778;48.792;9.260;2022-07-17T01:40:49;6.82;;;3.80;;
15356;SDS011;7778;48.792;9.260;2022-07-17T01:43:35;4.35;;;3.13;;
15356;SDS011;7778;48.792;9.260;2022-07-17T01:46:21;4.88;;;3.10;;
15356;SDS011;7778;48.792;9.260;2022-07-17T01:49:07;4.80;;;3.20;;
15356;SDS011;7778;48.792;9.260;2022-07-17T01:51:52;5.30;;;3.00;;
15356;SDS011;7778;48.792;9.260;2022-07-17T01:54:44;5.03;;;3.15;;
15356;SDS011;7778;48.792;9.260;2022-07-17T01:57:30;3.40;;;3.08;;
15356;SDS011;7778;48.792;9.260;2022-07-17T02:00:16;4.25;;;3.10;;
15356;SDS011;7778;48.792;9.260;2022-07-17T02:03:04;4.82;;;3.22;;
15356;SDS011;7778;48.792;9.260;2022-07-17T02:05:49;5.68;;;2.97;;
15356;SDS011;7778;48.792;9.260;2022-07-17T02:08:36;5.40;;;3.30;;
15356;SDS011;7778;48.792;9.260;2022-07-17T02:11:22;4.00;;;3.03;;
15356;SDS011;7778;48.792;9.260;2022-07-17T02:14:08;5.07;;;2.88;;
15356;SDS011;7778;48.792;9.260;2022-07-17T02:16:54;8.45;;;3.08;;
15356;SDS011;7778;48.792;9.260;2022-07-17T02:19:40;5.00;;;3.45;;
15356;SDS011;7778;48.792;9.260;2022-07-17T02:22:25;5.05;;;3.17;;
15356;SDS011;7778;48.792;9.260;2022-07-17T02:25:11;6.00;;;2.92;;
15356;SDS011;7778;48.792;9.260;2022-07-17T02:27:59;4.30;;;2.95;;
15356;SDS011;7778;48.792;9.260;2022-07-17T02:30:44;5.85;;;3.33;;
15356;SDS011;7778;48.792;9.260;2022-07-17T02:33:30;4.22;;;2.92;;
15356;SDS011;7778;48.792;9.260;2022-07-17T02:36:16;6.70;;;3.47;;
15356;SDS011;7778;48.792;9.260;2022-07-17T02:39:02;6.30;;;3.75;;
15356;SDS011;7778;48.792;9.260;2022-07-17T02:41:48;6.05;;;3.33;;
15356;SDS011;7778;48.792;9.260;2022-07-17T02:44:35;4.30;;;3.20;;
15356;SDS011;7778;48.792;9.260;2022-07-17T02:47:21;6.05;;;3.58;;
15356;SDS011;7778;48.792;9.260;2022-07-17T02:50:09;6.25;;;3.92;;
15356;SDS011;7778;48.792;9.260;2022-07-17T02:52:56;5.05;;;3.53;;
15356;SDS011;7778;48.792;9.260;2022-07-17T02:55:42;5.75;;;3.53;;
15356;SDS011;7778;48.792;9.260;2022-07-17T02:58:27;6.72;;;3.78;;
15356;SDS011;7778;48.792;9.260;2022-07-17T03:01:14;6.97;;;3.55;;
15356;SDS011;7778;48.792;9.260;2022-07-17T03:04:00;8.45;;;3.50;;
15356;SDS011;7778;48.792;9.260;2022-07-17T03:06:46;4.68;;;3.35;;
15356;SDS011;7778;48.792;9.260;2022-07-17T03:09:31;5.63;;;3.60;;
15356;SDS011;7778;48.792;9.260;2022-07-17T03:12:17;5.90;;;3.60;;
15356;SDS011;7778;48.792;9.260;2022-07-17T03:15:03;7.15;;;3.88;;
15356;SDS011;7778;48.792;9.260;2022-07-17T03:17:51;5.35;;;3.40;;
15356;SDS011;7778;48.792;9.260;2022-07-17T03:20:37;8.82;;;3.42;;
15356;SDS011;7778;48.792;9.260;2022-07-17T03:23:22;5.40;;;3.50;;
15356;SDS011;7778;48.792;9.260;2022-07-17T03:26:08;4.95;;;3.60;;
15356;SDS011;7778;48.792;9.260;2022-07-17T03:28:53;6.18;;;3.60;;
15356;SDS011;7778;48.792;9.260;2022-07-17T03:31:39;6.15;;;3.50;;
15356;SDS011;7778;48.792;9.260;2022-07-17T03:34:27;3.78;;;3.30;;
15356;SDS011;7778;48.792;9.260;2022-07-17T03:37:13;7.32;;;3.40;;
15356;SDS011;7778;48.792;9.260;2022-07-17T03:39:59;5.75;;;3.22;;
15356;SDS011;7778;48.792;9.260;2022-07-17T03:42:45;5.72;;;3.22;;
15356;SDS011;7778;48.792;9.260;2022-07-17T03:45:31;5.63;;;3.33;;
15356;SDS011;7778;48.792;9.260;2022-07-17T03:48:16;7.63;;;4.40;;
15356;SDS011;7778;48.792;9.260;2022-07-17T03:51:04;6.70;;;3.65;;
15356;SDS011;7778;48.792;9.260;2022-07-17T03:53:50;5.53;;;3.80;;
15356;SDS011;7778;48.792;9.260;2022-07-17T03:56:36;4.30;;;3.40;;
15356;SDS011;7778;48.792;9.260;2022-07-17T03:59:21;5.07;;;3.70;;
15356;SDS011;7778;48.792;9.260;2022-07-17T04:02:08;4.93;;;3.95;;
15356;SDS011;7778;48.792;9.260;2022-07-17T04:04:53;5.30;;;3.65;;
15356;SDS011;7778;48.792;9.260;2022-07-17T04:07:41;5.53;;;3.47;;
15356;SDS011;7778;48.792;9.260;2022-07-17T04:10:27;4.10;;;3.13;;
15356;SDS011;7778;48.792;9.260;2022-07-17T04:13:12;3.88;;;3.17;;
15356;SDS011;7778;48.792;9.260;2022-07-17T04:15:58;4.32;;;3.33;;
15356;SDS011;7778;48.792;9.260;2022-07-17T04:18:44;5.38;;;3.08;;
15356;SDS011;7778;48.792;9.260;2022-07-17T04:21:30;7.25;;;3.35;;
15356;SDS011;7778;48.792;9.260;2022-07-17T04:24:17;5.07;;;3.50;;
15356;SDS011;7778;48.792;9.260;2022-07-17T04:27:03;7.72;;;3.88;;
15356;SDS011;7778;48.792;9.260;2022-07-17T04:29:48;4.05;;;3.13;;
15356;SDS011;7778;48.792;9.260;2022-07-17T04:32:34;3.53;;;3.20;;
15356;SDS011;7778;48.792;9.260;2022-07-17T04:35:20;5.63;;;3.47;;
15356;SDS011;7778;48.792;9.260;2022-07-17T04:38:06;3.88;;;3.22;;
15356;SDS011;7778;48.792;9.260;2022-07-17T04:40:54;7.47;;;3.40;;
15356;SDS011;7778;48.792;9.260;2022-07-17T04:43:40;5.20;;;3.28;;
15356;SDS011;7778;48.792;9.260;2022-07-17T04:46:26;6.90;;;3.85;;
15356;SDS011;7778;48.792;9.260;2022-07-17T04:49:12;5.18;;;3.60;;
15356;SDS011;7778;48.792;9.260;2022-07-17T04:51:58;4.60;;;3.22;;
15356;SDS011;7778;48.792;9.260;2022-07-17T04:54:43;4.88;;;3.35;;
15356;SDS011;7778;48.792;9.260;2022-07-17T04:57:30;6.40;;;4.00;;
15356;SDS011;7778;48.792;9.260;2022-07-17T05:00:16;5.22;;;3.63;;
15356;SDS011;7778;48.792;9.260;2022-07-17T05:03:02;6.85;;;3.75;;
15356;SDS011;7778;48.792;9.260;2022-07-17T05:05:48;5.20;;;3.60;;
15356;SDS011;7778;48.792;9.260;2022-07-17T05:08:34;5.63;;;3.70;;
15356;SDS011;7778;48.792;9.260;2022-07-17T05:11:19;5.75;;;3.80;;
15356;SDS011;7778;48.792;9.260;2022-07-17T05:14:06;5.28;;;3.35;;
15356;SDS011;7778;48.792;9.260;2022-07-17T05:16:52;6.43;;;3.08;;
15356;SDS011;7778;48.792;9.260;2022-07-17T05:19:38;5.43;;;3.75;;
15356;SDS011;7778;48.792;9.260;2022-07-17T05:22:23;4.82;;;3.28;;
15356;SDS011;7778;48.792;9.260;2022-07-17T05:25:09;4.53;;;3.15;;
15356;SDS011;7778;48.792;9.260;2022-07-17T05:27:55;4.20;;;2.90;;
15356;SDS011;7778;48.792;9.260;2022-07-17T05:30:42;6.75;;;3.05;;
15356;SDS011;7778;48.792;9.260;2022-07-17T05:33:28;4.60;;;3.63;;
15356;SDS011;7778;48.792;9.260;2022-07-17T05:36:14;5.13;;;3.33;;
15356;SDS011;7778;48.792;9.260;2022-07-17T05:38:59;5.47;;;3.08;;
15356;SDS011;7778;48.792;9.260;2022-07-17T05:41:45;4.38;;;3.40;;
15356;SDS011;7778;48.792;9.260;2022-07-17T05:44:31;6.75;;;3.88;;
15356;SDS011;7778;48.792;9.260;2022-07-17T05:47:18;4.63;;;3.40;;
15356;SDS011;7778;48.792;9.260;2022-07-17T05:50:03;4.22;;;3.00;;
15356;SDS011;7778;48.792;9.260;2022-07-17T05:52:50;4.88;;;3.10;;
15356;SDS011;7778;48.792;9.260;2022-07-17T05:55:36;6.22;;;2.90;;
15356;SDS011;7778;48.792;9.260;2022-07-17T05:58:22;4.15;;;2.90;;
15356;SDS011;7778;48.792;9.260;2022-07-17T06:01:07;5.03;;;2.60;;
15356;SDS011;7778;48.792;9.260;2022-07-17T06:03:55;4.15;;;2.85;;
15356;SDS011;7778;48.792;9.260;2022-07-17T06:06:40;5.15;;;2.88;;
15356;SDS011;7778;48.792;9.260;2022-07-17T06:09:26;4.32;;;3.00;;
15356;SDS011;7778;48.792;9.260;2022-07-17T06:12:12;4.13;;;3.20;;
15356;SDS011;7778;48.792;9.260;2022-07-17T06:14:58;6.97;;;3.33;;
15356;SDS011;7778;48.792;9.260;2022-07-17T06:17:43;3.65;;;2.70;;
15356;SDS011;7778;48.792;9.260;2022-07-17T06:20:30;4.00;;;3.10;;
15356;SDS011;7778;48.792;9.260;2022-07-17T06:23:16;3.80;;;3.28;;
15356;SDS011;7778;48.792;9.260;2022-07-17T06:26:02;3.78;;;3.10;;
15356;SDS011;7778;48.792;9.260;2022-07-17T06:28:47;3.03;;;2.60;;
15356;SDS011;7778;48.792;9.260;2022-07-17T06:31:33;2.95;;;2.20;;
15356;SDS011;7778;48.792;9.260;2022-07-17T06:34:19;3.95;;;2.80;;
15356;SDS011;7778;48.792;9.260;2022-07-17T06:37:06;3.25;;;2.58;;
15356;SDS011;7778;48.792;9.260;2022-07-17T06:39:52;4.35;;;2.95;;
15356;SDS011;7778;48.792;9.260;2022-07-17T06:42:37;4.63;;;2.90;;
15356;SDS011;7778;48.792;9.260;2022-07-17T06:45:23;5.15;;;3.13;;
15356;SDS011;7778;48.792;9.260;2022-07-17T06:48:09;2.92;;;2.60;;
15356;SDS011;7778;48.792;9.260;2022-07-17T06:50:54;3.55;;;2.63;;
15356;SDS011;7778;48.792;9.260;2022-07-17T06:53:41;6.28;;;3.30;;
15356;SDS011;7778;48.792;9.260;2022-07-17T06:56:27;2.63;;;2.42;;
15356;SDS011;7778;48.792;9.260;2022-07-17T06:59:13;2.20;;;1.95;;
15356;SDS011;7778;48.792;9.260;2022-07-17T07:01:58;3.22;;;2.30;;
15356;SDS011;7778;48.792;9.260;2022-07-17T07:04:44;2.28;;;2.08;;
15356;SDS011;7778;48.792;9.260;2022-07-17T07:07:30;2.03;;;1.83;;
15356;SDS011;7778;48.792;9.260;2022-07-17T07:10:17;3.03;;;1.60;;
15356;SDS011;7778;48.792;9.260;2022-07-17T07:13:03;2.05;;;1.45;;
15356;SDS011;7778;48.792;9.260;2022-07-17T07:15:48;1.60;;;1.50;;
15356;SDS011;7778;48.792;9.260;2022-07-17T07:18:34;2.28;;;1.80;;
15356;SDS011;7778;48.792;9.260;2022-07-17T07:21:20;2.60;;;1.80;;
15356;SDS011;7778;48.792;9.260;2022-07-17T07:24:06;2.70;;;1.75;;
15356;SDS011;7778;48.792;9.260;2022-07-17T07:26:53;2.35;;;1.75;;
15356;SDS011;7778;48.792;9.260;2022-07-17T07:29:39;1.70;;;1.60;;
15356;SDS011;7778;48.792;9.260;2022-07-17T07:32:25;1.80;;;1.67;;
15356;SDS011;7778;48.792;9.260;2022-07-17T07:35:11;2.15;;;1.90;;
15356;SDS011;7778;48.792;9.260;2022-07-17T07:37:57;3.25;;;2.20;;
15356;SDS011;7778;48.792;9.260;2022-07-17T07:40:42;2.05;;;1.73;;
15356;SDS011;7778;48.792;9.260;2022-07-17T07:43:29;2.35;;;1.55;;
15356;SDS011;7778;48.792;9.260;2022-07-17T07:46:15;1.88;;;1.77;;
15356;SDS011;7778;48.792;9.260;2022-07-17T07:49:01;1.70;;;1.50;;
15356;SDS011;7778;48.792;9.260;2022-07-17T07:51:46;1.70;;;1.60;;
15356;SDS011;7778;48.792;9.260;2022-07-17T07:54:32;1.80;;;1.70;;
15356;SDS011;7778;48.792;9.260;2022-07-17T07:57:18;2.30;;;1.85;;
15356;SDS011;7778;48.792;9.260;2022-07-17T08:00:08;1.80;;;1.70;;
15356;SDS011;7778;48.792;9.260;2022-07-17T08:02:56;2.92;;;1.90;;
15356;SDS011;7778;48.792;9.260;2022-07-17T08:05:41;2.03;;;1.55;;
15356;SDS011;7778;48.792;9.260;2022-07-17T08:08:27;1.70;;;1.60;;
15356;SDS011;7778;48.792;9.260;2022-07-17T08:11:12;1.85;;;1.70;;
15356;SDS011;7778;48.792;9.260;2022-07-17T08:13:58;2.38;;;1.98;;
15356;SDS011;7778;48.792;9.260;2022-07-17T08:16:46;7.50;;;4.75;;
15356;SDS011;7778;48.792;9.260;2022-07-17T08:19:32;5.05;;;3.35;;
15356;SDS011;7778;48.792;9.260;2022-07-17T08:22:18;3.28;;;2.38;;
15356;SDS011;7778;48.792;9.260;2022-07-17T08:25:07;1.65;;;1.55;;
15356;SDS011;7778;48.792;9.260;2022-07-17T08:27:56;3.30;;;1.95;;
15356;SDS011;7778;48.792;9.260;2022-07-17T08:30:41;2.40;;;2.00;;
15356;SDS011;7778;48.792;9.260;2022-07-17T08:33:30;2.45;;;1.67;;
15356;SDS011;7778;48.792;9.260;2022-07-17T08:36:16;2.25;;;2.05;;
15356;SDS011;7778;48.792;9.260;2022-07-17T08:39:02;2.53;;;1.58;;
15356;SDS011;7778;48.792;9.260;2022-07-17T08:41:48;1.88;;;1.75;;
15356;SDS011;7778;48.792;9.260;2022-07-17T08:44:35;2.03;;;1.48;;
15356;SDS011;7778;48.792;9.260;2022-07-17T08:47:20;2.10;;;1.80;;
15356;SDS011;7778;48.792;9.260;2022-07-17T08:50:24;1.98;;;1.60;;
15356;SDS011;7778;48.792;9.260;2022-07-17T08:53:12;1.58;;;1.48;;
15356;SDS011;7778;48.792;9.260;2022-07-17T08:55:58;2.03;;;1.70;;
15356;SDS011;7778;48.792;9.260;2022-07-17T08:58:47;1.85;;;1.75;;
15356;SDS011;7778;48.792;9.260;2022-07-17T09:01:34;3.78;;;1.75;;
15356;SDS011;7778;48.792;9.260;2022-07-17T09:04:20;2.35;;;2.15;;
15356;SDS011;7778;48.792;9.260;2022-07-17T09:07:08;2.33;;;1.55;;
15356;SDS011;7778;48.792;9.260;2022-07-17T09:09:53;3.97;;;2.42;;
15356;SDS011;7778;48.792;9.260;2022-07-17T09:12:39;1.65;;;1.55;;
15356;SDS011;7778;48.792;9.260;2022-07-17T09:15:26;1.63;;;1.52;;
15356;SDS011;7778;48.792;9.260;2022-07-17T09:18:12;2.13;;;1.58;;
15356;SDS011;7778;48.792;9.260;2022-07-17T09:20:58;1.50;;;1.40;;
15356;SDS011;7778;48.792;9.260;2022-07-17T09:23:45;2.30;;;2.10;;
15356;SDS011;7778;48.792;9.260;2022-07-17T09:26:43;1.60;;;1.50;;
15356;SDS011;7778;48.792;9.260;2022-07-17T09:29:32;2.20;;;1.65;;
15356;SDS011;7778;48.792;9.260;2022-07-17T09:32:18;1.75;;;1.58;;
15356;SDS011;7778;48.792;9.260;2022-07-17T09:35:07;2.80;;;1.50;;
15356;SDS011;7778;48.792;9.260;2022-07-17T09:37:54;2.92;;;1.70;;
15356;SDS011;7778;48.792;9.260;2022-07-17T09:40:42;1.73;;;1.50;;
15356;SDS011;7778;48.792;9.260;2022-07-17T09:43:46;2.35;;;1.70;;
15356;SDS011;7778;48.792;9.260;2022-07-17T09:46:34;1.80;;;1.63;;
15356;SDS011;7778;48.792;9.260;2022-07-17T09:49:21;2.78;;;1.75;;
15356;SDS011;7778;48.792;9.260;2022-07-17T09:52:11;1.58;;;1.48;;
15356;SDS011;7778;48.792;9.260;2022-07-17T09:54:59;2.33;;;1.65;;
15356;SDS011;7778;48.792;9.260;2022-07-17T09:57:47;1.70;;;1.60;;
15356;SDS011;7778;48.792;9.260;2022-07-17T10:00:34;1.70;;;1.60;;
15356;SDS011;7778;48.792;9.260;2022-07-17T10:03:20;2.30;;;1.65;;
15356;SDS011;7778;48.792;9.260;2022-07-17T10:06:06;3.70;;;2.00;;
15356;SDS011;7778;48.792;9.260;2022-07-17T10:08:54;2.08;;;1.83;;
15356;SDS011;7778;48.792;9.260;2022-07-17T10:11:40;2.95;;;1.95;;
15356;SDS011;7778;48.792;9.260;2022-07-17T10:14:28;1.38;;;1.25;;
15356;SDS011;7778;48.792;9.260;2022-07-17T10:17:19;2.20;;;1.70;;
15356;SDS011;7778;48.792;9.260;2022-07-17T10:20:08;1.38;;;1.27;;
15356;SDS011;7778;48.792;9.260;2022-07-17T10:23:12;1.63;;;1.52;;
15356;SDS011;7778;48.792;9.260;2022-07-17T10:25:59;1.60;;;1.50;;
15356;SDS011;7778;48.792;9.260;2022-07-17T10:28:46;1.55;;;1.45;;
15356;SDS011;7778;48.792;9.260;2022-07-17T10:31:34;2.80;;;1.50;;
15356;SDS011;7778;48.792;9.260;2022-07-17T10:34:22;3.00;;;1.55;;
15356;SDS011;7778;48.792;9.260;2022-07-17T10:37:27;2.58;;;2.17;;
15356;SDS011;7778;48.792;9.260;2022-07-17T10:40:18;1.40;;;1.30;;
15356;SDS011;7778;48.792;9.260;2022-07-17T10:43:05;2.03;;;1.50;;
15356;SDS011;7778;48.792;9.260;2022-07-17T10:45:52;2.05;;;1.70;;
15356;SDS011;7778;48.792;9.260;2022-07-17T10:48:39;9.70;;;4.75;;
15356;SDS011;7778;48.792;9.260;2022-07-17T10:51:25;2.28;;;1.70;;
15356;SDS011;7778;48.792;9.260;2022-07-17T10:54:12;2.30;;;1.70;;
15356;SDS011;7778;48.792;9.260;2022-07-17T10:57:00;3.10;;;1.45;;
15356;SDS011;7778;48.792;9.260;2022-07-17T10:59:46;2.28;;;1.50;;
15356;SDS011;7778;48.792;9.260;2022-07-17T11:02:32;1.95;;;1.27;;
15356;SDS011;7778;48.792;9.260;2022-07-17T11:05:19;1.60;;;1.50;;
15356;SDS011;7778;48.792;9.260;2022-07-17T11:08:07;1.52;;;1.42;;
15356;SDS011;7778;48.792;9.260;2022-07-17T11:10:55;2.08;;;1.58;;
15356;SDS011;7778;48.792;9.260;2022-07-17T11:13:40;2.33;;;1.50;;
15356;SDS011;7778;48.792;9.260;2022-07-17T11:16:27;2.05;;;1.63;;
15356;SDS011;7778;48.792;9.260;2022-07-17T11:19:20;1.70;;;1.60;;
15356;SDS011;7778;48.792;9.260;2022-07-17T11:22:08;3.25;;;1.50;;
15356;SDS011;7778;48.792;9.260;2022-07-17T11:24:56;1.58;;;1.48;;
15356;SDS011;7778;48.792;9.260;2022-07-17T11:27:41;2.67;;;1.55;;
15356;SDS011;7778;48.792;9.260;2022-07-17T11:30:27;2.10;;;1.85;;
15356;SDS011;7778;48.792;9.260;2022-07-17T11:33:14;2.80;;;1.50;;
15356;SDS011;7778;48.792;9.260;2022-07-17T11:36:00;1.50;;;1.35;;
15356;SDS011;7778;48.792;9.260;2022-07-17T11:38:47;1.80;;;1.42;;
15356;SDS011;7778;48.792;9.260;2022-07-17T11:41:34;1.70;;;1.38;;
15356;SDS011;7778;48.792;9.260;2022-07-17T11:44:23;1.63;;;1.40;;
15356;SDS011;7778;48.792;9.260;2022-07-17T11:47:10;12.60;;;7.05;;
15356;SDS011;7778;48.792;9.260;2022-07-17T11:50:05;6.15;;;2.78;;
15356;SDS011;7778;48.792;9.260;2022-07-17T11:52:53;1.58;;;1.48;;
15356;SDS011;7778;48.792;9.260;2022-07-17T11:55:48;1.60;;;1.50;;
15356;SDS011;7778;48.792;9.260;2022-07-17T11:58:41;1.60;;;1.52;;
15356;SDS011;7778;48.792;9.260;2022-07-17T12:01:37;1.73;;;1.63;;
15356;SDS011;7778;48.792;9.260;2022-07-17T12:04:25;1.73;;;1.63;;
15356;SDS011;7778;48.792;9.260;2022-07-17T12:07:10;2.38;;;1.92;;
15356;SDS011;7778;48.792;9.260;2022-07-17T12:09:56;1.70;;;1.60;;
15356;SDS011;7778;48.792;9.260;2022-07-17T12:12:52;2.90;;;1.65;;
15356;SDS011;7778;48.792;9.260;2022-07-17T12:15:42;6.03;;;2.28;;
15356;SDS011;7778;48.792;9.260;2022-07-17T12:18:30;1.67;;;1.58;;
15356;SDS011;7778;48.792;9.260;2022-07-17T12:21:16;1.60;;;1.50;;
15356;SDS011;7778;48.792;9.260;2022-07-17T12:24:03;2.25;;;1.65;;
15356;SDS011;7778;48.792;9.260;2022-07-17T12:26:50;1.65;;;1.52;;
15356;SDS011;7778;48.792;9.260;2022-07-17T12:29:38;2.08;;;1.60;;
15356;SDS011;7778;48.792;9.260;2022-07-17T12:32:24;2.33;;;1.88;;
15356;SDS011;7778;48.792;9.260;2022-07-17T12:35:10;4.15;;;2.92;;
15356;SDS011;7778;48.792;9.260;2022-07-17T12:37:56;2.60;;;2.40;;
15356;SDS011;7778;48.792;9.260;2022-07-17T12:40:41;2.03;;;1.50;;
15356;SDS011;7778;48.792;9.260;2022-07-17T12:43:27;2.17;;;1.60;;
15356;SDS011;7778;48.792;9.260;2022-07-17T12:46:14;1.63;;;1.50;;
15356;SDS011;7778;48.792;9.260;2022-07-17T12:49:01;1.45;;;1.35;;
15356;SDS011;7778;48.792;9.260;2022-07-17T12:51:47;1.60;;;1.30;;
15356;SDS011;7778;48.792;9.260;2022-07-17T12:54:32;1.50;;;1.40;;
15356;SDS011;7778;48.792;9.260;2022-07-17T12:57:18;2.00;;;1.50;;
15356;SDS011;7778;48.792;9.260;2022-07-17T13:00:04;2.85;;;1.52;;
15356;SDS011;7778;48.792;9.260;2022-07-17T13:02:52;1.40;;;1.30;;
15356;SDS011;7778;48.792;9.260;2022-07-17T13:05:38;2.25;;;1.65;;
15356;SDS011;7778;48.792;9.260;2022-07-17T13:08:24;1.73;;;1.50;;
15356;SDS011;7778;48.792;9.260;2022-07-17T13:11:10;1.58;;;1.48;;
15356;SDS011;7778;48.792;9.260;2022-07-17T13:13:55;1.30;;;1.20;;
15356;SDS011;7778;48.792;9.260;2022-07-17T13:16:42;1.50;;;1.40;;
15356;SDS011;7778;48.792;9.260;2022-07-17T13:19:29;1.40;;;1.30;;
15356;SDS011;7778;48.792;9.260;2022-07-17T13:22:15;2.97;;;1.70;;
15356;SDS011;7778;48.792;9.260;2022-07-17T13:25:01;1.50;;;1.35;;
15356;SDS011;7778;48.792;9.260;2022-07-17T13:27:47;1.50;;;1.40;;
15356;SDS011;7778;48.792;9.260;2022-07-17T13:30:33;2.17;;;1.60;;
15356;SDS011;7778;48.792;9.260;2022-07-17T13:33:19;1.45;;;1.25;;
15356;SDS011;7778;48.792;9.260;2022-07-17T13:36:06;4.07;;;2.35;;
15356;SDS011;7778;48.792;9.260;2022-07-17T13:38:52;1.52;;;1.30;;
15356;SDS011;7778;48.792;9.260;2022-07-17T13:41:38;1.50;;;1.40;;
15356;SDS011;7778;48.792;9.260;2022-07-17T13:44:24;1.40;;;1.30;;
15356;SDS011;7778;48.792;9.260;2022-07-17T13:47:10;1.73;;;1.38;;
15356;SDS011;7778;48.792;9.260;2022-07-17T13:49:56;2.33;;;1.67;;
15356;SDS011;7778;48.792;9.260;2022-07-17T13:52:43;3.72;;;1.77;;
15356;SDS011;7778;48.792;9.260;2022-07-17T13:55:29;1.13;;;1.02;;
15356;SDS011;7778;48.792;9.260;2022-07-17T13:58:14;1.60;;;1.48;;
15356;SDS011;7778;48.792;9.260;2022-07-17T14:01:00;2.05;;;1.60;;
15356;SDS011;7778;48.792;9.260;2022-07-17T14:03:46;1.70;;;1.13;;
15356;SDS011;7778;48.792;9.260;2022-07-17T14:06:31;1.17;;;1.10;;
15356;SDS011;7778;48.792;9.260;2022-07-17T14:09:18;1.70;;;1.60;;
15356;SDS011;7778;48.792;9.260;2022-07-17T14:12:05;1.63;;;1.48;;
15356;SDS011;7778;48.792;9.260;2022-07-17T14:14:51;2.72;;;1.48;;
15356;SDS011;7778;48.792;9.260;2022-07-17T14:17:37;2.25;;;1.60;;
15356;SDS011;7778;48.792;9.260;2022-07-17T14:20:23;3.33;;;1.42;;
15356;SDS011;7778;48.792;9.260;2022-07-17T14:23:09;1.17;;;1.10;;
15356;SDS011;7778;48.792;9.260;2022-07-17T14:25:57;1.30;;;1.23;;
15356;SDS011;7778;48.792;9.260;2022-07-17T14:28:43;1.65;;;1.38;;
15356;SDS011;7778;48.792;9.260;2022-07-17T14:31:29;1.05;;;1.00;;
15356;SDS011;7778;48.792;9.260;2022-07-17T14:34:15;2.97;;;1.90;;
15356;SDS011;7778;48.792;9.260;2022-07-17T14:37:02;1.30;;;1.20;;
15356;SDS011;7778;48.792;9.260;2022-07-17T14:39:50;1.40;;;1.30;;
15356;SDS011;7778;48.792;9.260;2022-07-17T14:42:37;1.50;;;1.40;;
15356;SDS011;7778;48.792;9.260;2022-07-17T14:45:23;1.00;;;1.00;;
15356;SDS011;7778;48.792;9.260;2022-07-17T14:48:09;1.48;;;1.38;;
15356;SDS011;7778;48.792;9.260;2022-07-17T14:50:54;3.05;;;1.40;;
15356;SDS011;7778;48.792;9.260;2022-07-17T14:53:40;3.85;;;1.60;;
15356;SDS011;7778;48.792;9.260;2022-07-17T14:56:26;0.95;;;0.95;;
15356;SDS011;7778;48.792;9.260;2022-07-17T14:59:12;1.63;;;1.52;;
15356;SDS011;7778;48.792;9.260;2022-07-17T15:01:58;1.58;;;1.45;;
15356;SDS011;7778;48.792;9.260;2022-07-17T15:04:44;1.35;;;1.25;;
15356;SDS011;7778;48.792;9.260;2022-07-17T15:07:30;3.20;;;2.00;;
15356;SDS011;7778;48.792;9.260;2022-07-17T15:10:16;1.70;;;1.30;;
15356;SDS011;7778;48.792;9.260;2022-07-17T15:13:01;1.48;;;1.10;;
15356;SDS011;7778;48.792;9.260;2022-07-17T15:15:48;2.13;;;1.23;;
15356;SDS011;7778;48.792;9.260;2022-07-17T15:18:34;1.80;;;1.70;;
15356;SDS011;7778;48.792;9.260;2022-07-17T15:21:20;1.20;;;1.10;;
15356;SDS011;7778;48.792;9.260;2022-07-17T15:24:06;1.85;;;1.65;;
15356;SDS011;7778;48.792;9.260;2022-07-17T15:26:51;1.50;;;1.40;;
15356;SDS011;7778;48.792;9.260;2022-07-17T15:29:37;1.15;;;1.05;;
15356;SDS011;7778;48.792;9.260;2022-07-17T15:32:24;1.73;;;1.38;;
15356;SDS011;7778;48.792;9.260;2022-07-17T15:35:10;1.60;;;1.20;;
15356;SDS011;7778;48.792;9.260;2022-07-17T15:37:56;1.58;;;1.48;;
15356;SDS011;7778;48.792;9.260;2022-07-17T15:40:42;1.02;;;1.02;;
15356;SDS011;7778;48.792;9.260;2022-07-17T15:43:29;1.40;;;1.30;;
15356;SDS011;7778;48.792;9.260;2022-07-17T15:46:14;2.35;;;1.13;;
15356;SDS011;7778;48.792;9.260;2022-07-17T15:49:02;2.00;;;1.50;;
15356;SDS011;7778;48.792;9.260;2022-07-17T15:51:48;1.42;;;1.33;;
15356;SDS011;7778;48.792;9.260;2022-07-17T15:54:34;1.85;;;1.40;;
15356;SDS011;7778;48.792;9.260;2022-07-17T15:57:20;1.25;;;1.15;;
15356;SDS011;7778;48.792;9.260;2022-07-17T16:00:07;1.92;;;1.50;;
15356;SDS011;7778;48.792;9.260;2022-07-17T16:02:54;1.83;;;1.45;;
15356;SDS011;7778;48.792;9.260;2022-07-17T16:05:41;1.33;;;1.23;;
15356;SDS011;7778;48.792;9.260;2022-07-17T16:08:27;1.65;;;1.23;;
15356;SDS011;7778;48.792;9.260;2022-07-17T16:11:13;1.80;;;1.20;;
15356;SDS011;7778;48.792;9.260;2022-07-17T16:13:58;1.40;;;1.30;;
15356;SDS011;7778;48.792;9.260;2022-07-17T16:16:44;1.40;;;1.30;;
15356;SDS011;7778;48.792;9.260;2022-07-17T16:19:30;2.17;;;1.83;;
15356;SDS011;7778;48.792;9.260;2022-07-17T16:22:17;7.82;;;1.90;;
15356;SDS011;7778;48.792;9.260;2022-07-17T16:25:03;1.63;;;1.50;;
15356;SDS011;7778;48.792;9.260;2022-07-17T16:27:50;1.35;;;1.25;;
15356;SDS011;7778;48.792;9.260;2022-07-17T16:30:36;2.90;;;2.03;;
15356;SDS011;7778;48.792;9.260;2022-07-17T16:33:22;2.25;;;1.58;;
15356;SDS011;7778;48.792;9.260;2022-07-17T16:36:08;2.28;;;1.58;;
15356;SDS011;7778;48.792;9.260;2022-07-17T16:38:55;3.97;;;1.90;;
15356;SDS011;7778;48.792;9.260;2022-07-17T16:41:41;1.33;;;1.23;;
15356;SDS011;7778;48.792;9.260;2022-07-17T16:44:27;1.50;;;1.30;;
15356;SDS011;7778;48.792;9.260;2022-07-17T16:47:13;1.73;;;1.30;;
15356;SDS011;7778;48.792;9.260;2022-07-17T16:49:59;3.10;;;1.50;;
15356;SDS011;7778;48.792;9.260;2022-07-17T16:52:44;1.80;;;1.50;;
15356;SDS011;7778;48.792;9.260;2022-07-17T16:55:31;3.42;;;1.50;;
15356;SDS011;7778;48.792;9.260;2022-07-17T16:58:21;2.05;;;1.20;;